South Londonderry, Vermont
Current Conditions -  °F | °C
As of 6:54 AM on Wednesday 28 Jan 2015 (Local Time) from KVSF Reporting Station
Overcast Overcast  
Wind Chill:   Ceiling: 7000
Heat Index: 11°   Visibility: 10mi
Dew Point: -2°   Wind: 7mph
Humidity: 56%   Direction: 310°NW
Pressure: 29.93"   Gusts: NA
Location:  43.15°N, 72.84°W
Report Text: KVSF 281154Z AUTO 31006KT 10SM OVC070 M12/M19 A2993 RMK AO2 SLP147 60000 70005 T11171189 11117 21122 52031 TSNO
Loading
Personal Weather Stations






























Interactive Weather Map New forecast layout! Learn more

10-Day Weather Forecast

Advertisements
Track Severe Weather on mobile